createdAt,value
2023-04-23T00:01:02.357Z,97566.47
2023-04-23T00:03:51.050Z,97588.69
2023-04-23T00:06:39.904Z,97590.47
2023-04-23T00:09:31.404Z,97578.53
2023-04-23T00:12:21.978Z,97581.41
2023-04-23T00:15:12.062Z,97581.19
2023-04-23T00:17:59.796Z,97579.13
2023-04-23T00:20:47.545Z,97577.63
2023-04-23T00:23:35.204Z,97571.28
2023-04-23T00:26:22.636Z,97565.31
2023-04-23T00:29:11.702Z,97561.53
2023-04-23T00:31:59.425Z,97562.97
2023-04-23T00:34:48.689Z,97554.88
2023-04-23T00:37:36.219Z,97568.00
2023-04-23T00:40:24.518Z,97569.59
2023-04-23T00:43:12.484Z,97567.72
2023-04-23T00:46:01.691Z,97570.78
2023-04-23T00:48:50.689Z,97581.22
2023-04-23T00:51:38.210Z,97578.28
2023-04-23T00:54:25.826Z,97581.50
2023-04-23T00:57:13.528Z,97583.09
2023-04-23T01:00:01.678Z,97582.66
2023-04-23T01:02:53.127Z,97598.94
2023-04-23T01:05:42.806Z,97579.09
2023-04-23T01:08:32.756Z,97573.78
2023-04-23T01:11:20.725Z,97571.09
2023-04-23T01:14:09.537Z,97568.44
2023-04-23T01:16:58.230Z,97565.94
2023-04-23T01:19:47.591Z,97562.84
2023-04-23T01:22:39.098Z,97558.91
2023-04-23T01:25:26.905Z,97556.00
2023-04-23T01:28:14.826Z,97559.66
2023-04-23T01:31:04.024Z,97572.75
2023-04-23T01:33:55.140Z,97573.31
2023-04-23T01:36:44.466Z,97569.38
2023-04-23T01:39:33.852Z,97569.56
2023-04-23T01:42:23.317Z,97570.91
2023-04-23T01:45:11.830Z,97563.94
2023-04-23T01:48:01.086Z,97572.31
2023-04-23T01:50:49.564Z,97567.34
2023-04-23T01:53:37.432Z,97569.59
2023-04-23T01:56:30.623Z,97564.63
2023-04-23T01:59:18.525Z,97567.28
2023-04-23T02:02:10.758Z,97566.19
2023-04-23T02:05:03.554Z,97580.91
2023-04-23T02:07:52.445Z,97582.13
2023-04-23T02:10:40.188Z,97575.50
2023-04-23T02:13:29.083Z,97598.03
2023-04-23T02:16:16.930Z,97600.06
2023-04-23T02:19:04.761Z,97599.22
2023-04-23T02:21:52.359Z,97597.13
2023-04-23T02:24:42.350Z,97594.44
2023-04-23T02:27:30.123Z,97596.50
2023-04-23T02:30:19.144Z,97593.00
2023-04-23T02:33:06.732Z,97594.19
2023-04-23T02:35:54.187Z,97599.91
2023-04-23T02:38:44.741Z,97593.25
2023-04-23T02:41:32.327Z,97597.97
2023-04-23T02:44:19.810Z,97596.28
2023-04-23T02:47:08.683Z,97599.97
2023-04-23T02:49:59.196Z,97608.81
2023-04-23T02:52:47.838Z,97620.03
2023-04-23T02:55:35.495Z,97620.03
2023-04-23T02:58:23.082Z,97621.13
2023-04-23T03:01:10.530Z,97625.59
2023-04-23T03:04:00.641Z,97622.56
2023-04-23T03:06:48.732Z,97616.25
2023-04-23T03:09:36.114Z,97621.59
2023-04-23T03:12:23.641Z,97619.91
2023-04-23T03:15:12.649Z,97621.94
2023-04-23T03:18:01.393Z,97624.16
2023-04-23T03:20:50.939Z,97629.47
2023-04-23T03:23:38.759Z,97623.13
2023-04-23T03:26:26.560Z,97627.91
2023-04-23T03:29:14.144Z,97629.28
2023-04-23T03:32:01.911Z,97638.69
2023-04-23T03:34:49.403Z,97638.31
2023-04-23T03:37:38.101Z,97641.59
2023-04-23T03:40:25.890Z,97650.63
2023-04-23T03:43:13.355Z,97651.63
2023-04-23T03:46:01.221Z,97654.94
2023-04-23T03:48:49.018Z,97654.31
2023-04-23T03:51:36.693Z,97648.97
2023-04-23T03:54:26.633Z,97647.13
2023-04-23T03:57:14.696Z,97649.59
2023-04-23T04:00:02.607Z,97649.34
2023-04-23T04:02:50.158Z,97645.66
2023-04-23T04:05:37.798Z,97650.53
2023-04-23T04:08:26.655Z,97652.38
2023-04-23T04:11:15.642Z,97653.03
2023-04-23T04:14:02.939Z,97648.50
2023-04-23T04:16:50.773Z,97656.06
2023-04-23T04:19:38.618Z,97658.72
2023-04-23T04:22:26.047Z,97658.72
2023-04-23T04:25:13.449Z,97668.53
2023-04-23T04:28:03.576Z,97660.53
2023-04-23T04:30:51.149Z,97665.22
2023-04-23T04:33:39.810Z,97669.75
2023-04-23T04:36:28.860Z,97672.41
2023-04-23T04:39:17.060Z,97680.41
2023-04-23T04:42:06.932Z,97684.88
2023-04-23T04:44:58.282Z,97677.06
2023-04-23T04:47:46.104Z,97675.44
2023-04-23T04:50:33.474Z,97679.56
2023-04-23T04:53:21.126Z,97675.44
2023-04-23T04:56:09.045Z,97673.41
2023-04-23T04:58:56.705Z,97683.25
2023-04-23T05:01:46.023Z,97676.41
2023-04-23T05:04:33.789Z,97679.75
2023-04-23T05:07:21.276Z,97694.72
2023-04-23T05:10:09.879Z,97699.50
2023-04-23T05:12:58.460Z,97704.38
2023-04-23T05:15:48.177Z,97704.66
2023-04-23T05:18:37.013Z,97702.47
2023-04-23T05:21:24.854Z,97705.88
2023-04-23T05:24:12.534Z,97707.25
2023-04-23T05:26:59.950Z,97714.97
2023-04-23T05:29:47.540Z,97707.50
2023-04-23T05:32:35.134Z,97709.94
2023-04-23T05:35:23.980Z,97705.03
2023-04-23T05:38:11.675Z,97702.91
2023-04-23T05:40:59.973Z,97707.72
2023-04-23T05:43:47.651Z,97711.69
2023-04-23T05:46:35.452Z,97708.00
2023-04-23T05:49:23.916Z,97703.94
2023-04-23T05:52:13.218Z,97703.94
2023-04-23T05:55:00.866Z,97710.56
2023-04-23T05:57:48.459Z,97715.88
2023-04-23T06:00:37.028Z,97724.19
2023-04-23T06:03:24.836Z,97729.03
2023-04-23T06:06:13.001Z,97725.47
2023-04-23T06:09:02.278Z,97736.31
2023-04-23T06:11:50.652Z,97740.28
2023-04-23T06:14:38.322Z,97746.00
2023-04-23T06:17:26.119Z,97751.78
2023-04-23T06:20:13.746Z,97746.44
2023-04-23T06:23:02.675Z,97749.56
2023-04-23T06:25:51.380Z,97744.44
2023-04-23T06:28:39.822Z,97740.00
2023-04-23T06:31:27.637Z,97736.31
2023-04-23T06:34:15.587Z,97734.41
2023-04-23T06:37:03.370Z,97739.75
2023-04-23T06:39:50.760Z,97738.00
2023-04-23T06:42:39.624Z,97740.94
2023-04-23T06:45:27.220Z,97740.50
2023-04-23T06:48:14.607Z,97735.97
2023-04-23T06:51:02.124Z,97745.34
2023-04-23T06:53:49.714Z,97745.00
2023-04-23T06:56:37.139Z,97745.91
2023-04-23T06:59:26.146Z,97742.31
2023-04-23T07:02:13.875Z,97739.09
2023-04-23T07:05:01.688Z,97732.00
2023-04-23T07:07:49.541Z,97735.47
2023-04-23T07:10:37.042Z,97724.66
2023-04-23T07:13:25.073Z,97717.59
2023-04-23T07:16:16.127Z,97710.66
2023-04-23T07:19:03.883Z,97712.75
2023-04-23T07:21:53.358Z,97706.00
2023-04-23T07:24:41.546Z,97706.84
2023-04-23T07:27:29.828Z,97706.09
2023-04-23T07:30:17.514Z,97717.22
2023-04-23T07:33:08.214Z,97724.66
2023-04-23T07:35:55.957Z,97718.38
2023-04-23T07:38:46.433Z,97719.13
2023-04-23T07:41:34.365Z,97724.09
2023-04-23T07:44:21.905Z,97717.34
2023-04-23T07:47:09.390Z,97713.28
2023-04-23T07:49:58.186Z,97713.53
2023-04-23T07:52:46.079Z,97714.66
2023-04-23T07:55:33.683Z,97706.72
2023-04-23T07:58:21.302Z,97712.06
2023-04-23T08:01:08.785Z,97712.88
2023-04-23T08:03:59.399Z,97711.63
2023-04-23T08:06:49.062Z,97711.19
2023-04-23T08:09:36.807Z,97701.69
2023-04-23T08:12:24.232Z,97702.91
2023-04-23T08:15:13.174Z,97695.09
2023-04-23T08:18:00.870Z,97690.13
2023-04-23T08:20:48.481Z,97701.56
2023-04-23T08:23:39.454Z,97697.63
2023-04-23T08:26:27.492Z,97691.63
2023-04-23T08:29:15.395Z,97693.16
2023-04-23T08:32:02.973Z,97692.41
2023-04-23T08:34:50.590Z,97691.66
2023-04-23T08:37:39.025Z,97690.94
2023-04-23T08:40:31.966Z,97693.66
2023-04-23T08:43:21.322Z,97687.31
2023-04-23T08:46:14.409Z,97692.34
2023-04-23T08:49:04.629Z,97684.66
2023-04-23T08:51:55.679Z,97683.72
2023-04-23T08:54:49.153Z,97679.13
2023-04-23T08:57:41.299Z,97675.38
2023-04-23T09:00:28.900Z,97671.72
2023-04-23T09:03:18.342Z,97666.19
2023-04-23T09:06:06.258Z,97663.75
2023-04-23T09:08:54.187Z,97653.75
2023-04-23T09:11:42.668Z,97645.31
2023-04-23T09:14:31.632Z,97655.88
2023-04-23T09:17:20.441Z,97643.16
2023-04-23T09:20:10.400Z,97647.50
2023-04-23T09:22:58.135Z,97643.84
2023-04-23T09:25:45.531Z,97646.97
2023-04-23T09:28:37.382Z,97630.59
2023-04-23T09:31:26.541Z,97620.31
2023-04-23T09:34:19.205Z,97615.00
2023-04-23T09:37:11.219Z,97608.75
2023-04-23T09:40:01.190Z,97600.41
2023-04-23T09:42:50.870Z,97600.59
2023-04-23T09:45:38.433Z,97595.03
2023-04-23T09:48:42.704Z,97595.81
2023-04-23T09:51:32.079Z,97599.22
2023-04-23T09:54:21.840Z,97596.13
2023-04-23T09:57:09.855Z,97588.06
2023-04-23T10:00:07.320Z,97580.53
2023-04-23T10:03:01.332Z,97587.97
2023-04-23T10:08:44.532Z,97577.53
2023-04-23T10:11:32.137Z,97580.53
2023-04-23T10:14:20.882Z,97574.44
2023-04-23T10:17:10.384Z,97590.78
2023-04-23T10:20:01.489Z,97584.44
2023-04-23T10:22:51.509Z,97581.41
2023-04-23T10:25:42.371Z,97573.78
2023-04-23T10:28:34.908Z,97576.63
2023-04-23T10:31:23.730Z,97577.38
2023-04-23T10:34:12.259Z,97563.94
2023-04-23T10:37:02.749Z,97577.63
2023-04-23T10:39:57.788Z,97562.94
2023-04-23T10:42:47.353Z,97563.66
2023-04-23T10:45:35.061Z,97564.97
2023-04-23T10:48:22.758Z,97555.88
2023-04-23T10:51:31.873Z,97564.66
2023-04-23T10:54:20.977Z,97564.84
2023-04-23T10:57:12.262Z,97553.88
2023-04-23T11:00:04.607Z,97544.75
2023-04-23T11:02:53.181Z,97530.53
2023-04-23T11:05:41.325Z,97543.47
2023-04-23T11:08:31.991Z,97534.94
2023-04-23T11:11:19.676Z,97537.03
2023-04-23T11:14:15.391Z,97531.00
2023-04-23T11:17:03.772Z,97528.28
2023-04-23T11:20:10.623Z,97523.66
2023-04-23T11:22:58.275Z,97523.41
2023-04-23T11:25:47.862Z,97515.53
2023-04-23T11:28:38.388Z,97509.88
2023-04-23T11:31:28.962Z,97511.44
2023-04-23T11:34:17.605Z,97511.00
2023-04-23T11:37:06.057Z,97505.34
2023-04-23T11:39:53.741Z,97498.84
2023-04-23T11:42:47.683Z,97493.19
2023-04-23T11:45:35.431Z,97490.13
2023-04-23T11:48:25.367Z,97478.06
2023-04-23T11:51:12.874Z,97473.31
2023-04-23T11:54:05.530Z,97464.50
2023-04-23T11:56:55.247Z,97461.81
2023-04-23T11:59:42.847Z,97454.13
2023-04-23T12:02:30.725Z,97453.72
2023-04-23T12:05:22.714Z,97458.88
2023-04-23T12:08:12.984Z,97463.38
2023-04-23T12:11:06.134Z,97462.41
2023-04-23T12:13:54.068Z,97457.69
2023-04-23T12:16:43.946Z,97442.78
2023-04-23T12:19:32.480Z,97437.03
2023-04-23T12:22:28.811Z,97441.16
2023-04-23T12:25:17.077Z,97433.97
2023-04-23T12:28:06.808Z,97436.72
2023-04-23T12:30:56.707Z,97424.09
2023-04-23T12:33:45.570Z,97428.66
2023-04-23T12:36:34.417Z,97425.91
2023-04-23T12:39:27.516Z,97416.38
2023-04-23T12:42:15.266Z,97428.97
2023-04-23T12:45:11.145Z,97423.81
2023-04-23T12:47:58.708Z,97419.50
2023-04-23T12:50:46.941Z,97415.06
2023-04-23T12:53:34.540Z,97414.69
2023-04-23T12:56:23.413Z,97411.94
2023-04-23T12:59:11.819Z,97406.84
2023-04-23T13:02:02.128Z,97415.97
2023-04-23T13:04:50.356Z,97407.41
2023-04-23T13:07:37.793Z,97405.16
2023-04-23T13:10:25.895Z,97405.06
2023-04-23T13:13:14.779Z,97391.34
2023-04-23T13:16:02.439Z,97385.72
2023-04-23T13:18:51.543Z,97377.72
2023-04-23T13:21:39.230Z,97380.13
2023-04-23T13:24:26.750Z,97371.66
2023-04-23T13:27:14.272Z,97371.56
2023-04-23T13:30:03.314Z,97365.56
2023-04-23T13:32:51.087Z,97355.63
2023-04-23T13:35:38.750Z,97354.44
2023-04-23T13:38:27.434Z,97343.63
2023-04-23T13:41:15.351Z,97335.28
2023-04-23T13:44:03.392Z,97334.00
2023-04-23T13:46:52.621Z,97327.09
2023-04-23T13:49:40.198Z,97329.09
2023-04-23T13:52:27.932Z,97321.78
2023-04-23T13:55:15.796Z,97309.03
2023-04-23T13:58:03.619Z,97296.47
2023-04-23T14:00:51.670Z,97296.81
2023-04-23T14:03:40.888Z,97297.72
2023-04-23T14:06:28.607Z,97291.63
2023-04-23T14:09:16.544Z,97285.66
2023-04-23T14:12:04.959Z,97283.75
2023-04-23T14:14:52.739Z,97279.63
2023-04-23T14:17:42.927Z,97267.22
2023-04-23T14:20:31.884Z,97264.69
2023-04-23T14:23:50.248Z,97258.75
2023-04-23T14:26:48.765Z,97267.19
2023-04-23T14:29:43.063Z,97255.16
2023-04-23T14:32:31.039Z,97248.94
2023-04-23T14:35:21.219Z,97246.94
2023-04-23T14:38:15.529Z,97234.16
2023-04-23T14:41:03.205Z,97232.84
2023-04-23T14:43:50.757Z,97232.13
2023-04-23T14:46:38.302Z,97226.19
2023-04-23T14:49:26.452Z,97220.44
2023-04-23T14:52:13.958Z,97224.41
2023-04-23T14:55:02.850Z,97213.63
2023-04-23T14:57:50.460Z,97226.38
2023-04-23T15:00:38.276Z,97212.16
2023-04-23T15:03:27.668Z,97206.50
2023-04-23T15:06:15.597Z,97210.72
2023-04-23T15:09:03.270Z,97210.34
2023-04-23T15:11:52.297Z,97200.69
2023-04-23T15:14:39.891Z,97205.66
2023-04-23T15:17:28.211Z,97197.91
2023-04-23T15:20:17.140Z,97207.81
2023-04-23T15:23:05.172Z,97215.19
2023-04-23T15:25:54.278Z,97194.88
2023-04-23T15:28:43.857Z,97191.63
2023-04-23T15:31:31.449Z,97182.53
2023-04-23T15:34:18.963Z,97175.63
2023-04-23T15:37:06.624Z,97182.25
2023-04-23T15:39:54.355Z,97174.03
2023-04-23T15:42:42.365Z,97159.84
2023-04-23T15:45:31.669Z,97162.16
2023-04-23T15:48:19.538Z,97152.41
2023-04-23T15:51:09.785Z,97146.56
2023-04-23T15:53:57.533Z,97138.75
2023-04-23T15:56:45.279Z,97139.91
2023-04-23T15:59:32.792Z,97130.69
2023-04-23T16:02:21.726Z,97132.28
2023-04-23T16:05:11.666Z,97131.69
2023-04-23T16:07:59.682Z,97123.59
2023-04-23T16:10:47.509Z,97129.44
2023-04-23T16:13:35.007Z,97122.13
2023-04-23T16:16:22.443Z,97115.47
2023-04-23T16:19:11.790Z,97113.63
2023-04-23T16:21:59.665Z,97102.47
2023-04-23T16:24:47.199Z,97098.25
2023-04-23T16:27:34.944Z,97106.00
2023-04-23T16:30:22.830Z,97099.69
2023-04-23T16:33:10.830Z,97099.84
2023-04-23T16:36:00.055Z,97092.97
2023-04-23T16:38:49.506Z,97102.16
2023-04-23T16:41:37.632Z,97095.59
2023-04-23T16:44:25.319Z,97093.25
2023-04-23T16:47:12.884Z,97102.56
2023-04-23T16:50:00.927Z,97096.53
2023-04-23T16:52:49.800Z,97094.97
2023-04-23T16:55:38.175Z,97099.81
2023-04-23T16:58:25.865Z,97093.03
2023-04-23T17:01:13.388Z,97089.31
2023-04-23T17:04:01.199Z,97080.66
2023-04-23T17:06:49.164Z,97078.53
2023-04-23T17:09:38.222Z,97085.59
2023-04-23T17:12:26.005Z,97063.84
2023-04-23T17:15:13.760Z,97058.59
2023-04-23T17:18:01.742Z,97052.00
2023-04-23T17:20:49.228Z,97060.88
2023-04-23T17:23:36.681Z,97073.03
2023-04-23T17:26:26.477Z,97069.03
2023-04-23T17:29:15.091Z,97072.09
2023-04-23T17:32:04.227Z,97066.25
2023-04-23T17:35:03.047Z,97056.47
2023-04-23T17:37:57.189Z,97053.56
2023-04-23T17:40:44.803Z,97058.88
2023-04-23T17:43:35.014Z,97061.84
2023-04-23T17:46:23.180Z,97052.09
2023-04-23T17:49:11.622Z,97045.88
2023-04-23T17:51:59.490Z,97042.34
2023-04-23T17:54:47.373Z,97040.66
2023-04-23T17:57:35.141Z,97040.28
2023-04-23T18:00:25.039Z,97036.88
2023-04-23T18:03:16.847Z,97031.28
2023-04-23T18:06:05.156Z,97041.03
2023-04-23T18:08:53.153Z,97039.78
2023-04-23T18:11:41.029Z,97045.25
2023-04-23T18:14:28.635Z,97054.09
2023-04-23T18:17:18.279Z,97050.13
2023-04-23T18:20:08.714Z,97050.94
2023-04-23T18:22:56.537Z,97057.50
2023-04-23T18:25:44.204Z,97061.38
2023-04-23T18:28:32.929Z,97057.81
2023-04-23T18:31:21.508Z,97061.75
2023-04-23T18:34:11.871Z,97049.50
2023-04-23T18:37:05.011Z,97065.97
2023-04-23T18:39:52.689Z,97081.16
2023-04-23T18:42:40.221Z,97099.53
2023-04-23T18:45:28.060Z,97092.78
2023-04-23T18:48:46.065Z,97082.84
2023-04-23T18:51:44.816Z,97075.84
2023-04-23T18:54:32.238Z,97084.00
2023-04-23T18:57:19.844Z,97131.56
2023-04-23T19:00:09.826Z,97159.63
2023-04-23T19:02:57.625Z,97202.63
2023-04-23T19:05:45.083Z,97211.53
2023-04-23T19:08:34.684Z,97231.28
2023-04-23T19:11:22.356Z,97228.06
2023-04-23T19:14:10.078Z,97239.53
2023-04-23T19:16:57.725Z,97233.38
2023-04-23T19:19:45.153Z,97241.31
2023-04-23T19:22:32.632Z,97238.84
2023-04-23T19:25:21.890Z,97234.63
2023-04-23T19:28:09.326Z,97214.13
2023-04-23T19:30:57.651Z,97219.81
2023-04-23T19:33:47.537Z,97215.47
2023-04-23T19:36:35.049Z,97196.84
2023-04-23T19:39:23.626Z,97180.88
2023-04-23T19:42:13.183Z,97182.41
2023-04-23T19:45:00.498Z,97183.97
2023-04-23T19:47:48.175Z,97211.63
2023-04-23T19:50:36.808Z,97222.88
2023-04-23T19:53:24.258Z,97232.16
2023-04-23T19:56:13.174Z,97240.22
2023-04-23T19:59:02.274Z,97241.41
2023-04-23T20:01:50.644Z,97246.31
2023-04-23T20:04:38.287Z,97252.28
2023-04-23T20:07:25.968Z,97260.72
2023-04-23T20:10:15.748Z,97260.28
2023-04-23T20:13:05.433Z,97267.72
2023-04-23T20:15:55.124Z,97266.53
2023-04-23T20:18:43.537Z,97270.44
2023-04-23T20:21:31.729Z,97281.78
2023-04-23T20:24:21.546Z,97287.94
2023-04-23T20:27:09.359Z,97282.56
2023-04-23T20:29:57.382Z,97293.81
2023-04-23T20:32:46.507Z,97283.50
2023-04-23T20:35:35.416Z,97284.94
2023-04-23T20:38:24.685Z,97277.13
2023-04-23T20:41:12.453Z,97274.88
2023-04-23T20:44:02.047Z,97268.88
2023-04-23T20:46:51.401Z,97271.34
2023-04-23T20:49:40.562Z,97275.25
2023-04-23T20:52:28.295Z,97274.22
2023-04-23T20:55:15.868Z,97272.56
2023-04-23T20:58:03.558Z,97270.03
2023-04-23T21:00:51.426Z,97274.16
2023-04-23T21:03:40.305Z,97284.72
2023-04-23T21:06:31.408Z,97279.72
2023-04-23T21:09:19.346Z,97270.88
2023-04-23T21:12:07.271Z,97267.81
2023-04-23T21:14:56.277Z,97264.94
2023-04-23T21:17:44.187Z,97257.94
2023-04-23T21:20:31.860Z,97263.25
2023-04-23T21:23:21.052Z,97256.84
2023-04-23T21:26:09.031Z,97243.06
2023-04-23T21:28:57.736Z,97248.13
2023-04-23T21:31:48.972Z,97245.84
2023-04-23T21:34:36.771Z,97253.63
2023-04-23T21:37:24.634Z,97243.75
2023-04-23T21:40:13.742Z,97259.50
2023-04-23T21:43:01.892Z,97250.63
2023-04-23T21:45:49.397Z,97258.41
2023-04-23T21:48:36.888Z,97262.66
2023-04-23T21:51:25.070Z,97264.44
2023-04-23T21:54:12.843Z,97260.72
2023-04-23T21:57:02.723Z,97256.81
2023-04-23T21:59:50.295Z,97272.91
2023-04-23T22:02:38.688Z,97269.19
2023-04-23T22:05:28.350Z,97280.81
2023-04-23T22:08:16.462Z,97286.56
2023-04-23T22:11:04.454Z,97294.25
2023-04-23T22:13:53.711Z,97284.59
2023-04-23T22:16:41.772Z,97295.06
2023-04-23T22:19:31.167Z,97297.56
2023-04-23T22:22:19.143Z,97301.19
2023-04-23T22:25:09.414Z,97307.88
2023-04-23T22:27:57.521Z,97300.66
2023-04-23T22:30:46.588Z,97313.66
2023-04-23T22:33:34.990Z,97311.56
2023-04-23T22:36:22.835Z,97318.63
2023-04-23T22:39:12.491Z,97312.66
2023-04-23T22:41:59.987Z,97308.88
2023-04-23T22:44:47.660Z,97309.44
2023-04-23T22:47:36.373Z,97295.88
2023-04-23T22:50:24.160Z,97289.97
2023-04-23T22:53:11.658Z,97284.66
2023-04-23T22:55:59.173Z,97284.84
2023-04-23T22:58:46.815Z,97287.50
2023-04-23T23:01:34.336Z,97296.06
2023-04-23T23:04:23.584Z,97287.22
2023-04-23T23:07:11.551Z,97275.94
2023-04-23T23:09:58.854Z,97273.56
2023-04-23T23:12:46.492Z,97281.16
2023-04-23T23:15:34.016Z,97293.13
2023-04-23T23:18:21.533Z,97300.09
2023-04-23T23:21:10.731Z,97290.09
2023-04-23T23:23:58.487Z,97290.94
2023-04-23T23:26:46.593Z,97290.28
2023-04-23T23:29:34.168Z,97275.75
2023-04-23T23:32:21.709Z,97270.06
2023-04-23T23:35:10.157Z,97272.72
2023-04-23T23:37:59.153Z,97259.00
2023-04-23T23:40:46.774Z,97249.78
2023-04-23T23:43:34.372Z,97243.25
2023-04-23T23:46:22.590Z,97239.78
2023-04-23T23:49:10.339Z,97241.63
2023-04-23T23:51:58.087Z,97234.47
2023-04-23T23:54:47.033Z,97232.00
2023-04-23T23:57:34.826Z,97230.50
